Time;durP1;ratioP1;P1;durP2;ratioP2;P2;SDS_P1;SDS_P2;PMS_P1;PMS_P2;Temp;Humidity;BMP_temperature;BMP_pressure;BME280_temperature;BME280_humidity;BME280_pressure;Samples;Min_cycle;Max_cycle;Signal;HPM_P1;HPM_P2
2022/11/02 00:00:19;;;;;;;8.63;1.92;;;13.80;99.90;;;;;;5032507;28;20572;-66
2022/11/02 00:02:45;;;;;;;14.88;2.03;;;12.90;99.90;;;;;;5050234;28;20029;-66
2022/11/02 00:05:12;;;;;;;9.30;2.08;;;13.10;99.90;;;;;;5053062;28;20048;-66
2022/11/02 00:07:38;;;;;;;17.27;2.58;;;13.10;99.90;;;;;;5052941;28;20126;-66
2022/11/02 00:10:04;;;;;;;11.55;2.40;;;14.00;99.90;;;;;;5053154;28;20048;-66
2022/11/02 00:12:30;;;;;;;4.15;1.10;;;14.00;99.90;;;;;;5053742;28;20078;-67
2022/11/02 00:14:55;;;;;;;6.20;1.48;;;14.00;99.90;;;;;;5053910;28;20048;-67
2022/11/02 00:17:21;;;;;;;3.75;1.70;;;13.50;99.90;;;;;;5053097;28;20051;-66
2022/11/02 00:19:47;;;;;;;8.13;1.77;;;14.20;99.90;;;;;;5052707;28;20531;-66
2022/11/02 00:22:13;;;;;;;14.57;2.05;;;13.30;99.90;;;;;;5052533;28;20049;-65
2022/11/02 00:24:38;;;;;;;14.82;2.22;;;13.60;99.90;;;;;;5054209;28;20083;-66
2022/11/02 00:27:04;;;;;;;9.32;2.45;;;13.70;99.90;;;;;;5052452;28;20160;-66
2022/11/02 00:29:30;;;;;;;6.45;2.28;;;14.50;99.90;;;;;;5053825;28;20045;-66
2022/11/02 00:31:55;;;;;;;10.15;2.10;;;13.90;99.90;;;;;;5053993;28;20048;-66
2022/11/02 00:34:21;;;;;;;9.23;2.08;;;13.80;99.90;;;;;;5052028;28;20406;-66
2022/11/02 00:36:46;;;;;;;9.05;2.10;;;14.40;99.90;;;;;;5052547;28;20045;-66
2022/11/02 00:39:12;;;;;;;9.20;1.90;;;13.60;99.90;;;;;;5052549;28;20028;-65
2022/11/02 00:41:38;;;;;;;10.52;1.77;;;13.90;99.90;;;;;;5052464;28;20048;-66
2022/11/02 00:44:03;;;;;;;6.65;1.70;;;13.70;99.90;;;;;;5051539;28;20036;-66
2022/11/02 00:46:29;;;;;;;6.25;1.88;;;13.50;99.90;;;;;;5045231;28;20063;-66
2022/11/02 00:48:54;;;;;;;5.85;1.90;;;14.20;99.90;;;;;;5032360;28;20512;-66
2022/11/02 00:51:20;;;;;;;13.07;2.50;;;13.30;99.90;;;;;;5032335;28;20069;-65
2022/11/02 00:53:45;;;;;;;6.28;1.88;;;13.90;99.90;;;;;;5047553;28;20458;-66
2022/11/02 00:56:11;;;;;;;3.50;1.48;;;14.10;99.90;;;;;;5052276;28;20502;-65
2022/11/02 00:58:36;;;;;;;7.47;2.10;;;13.80;99.90;;;;;;5051263;28;20115;-66
2022/11/02 01:01:06;;;;;;;6.90;2.15;;;14.10;99.90;;;;;;5053448;28;20071;-65
2022/11/02 01:03:32;;;;;;;6.40;1.70;;;14.10;99.90;;;;;;5052934;28;20521;-66
2022/11/02 01:05:57;;;;;;;3.38;1.50;;;13.80;99.90;;;;;;5051812;28;20068;-66
2022/11/02 01:08:23;;;;;;;8.57;2.30;;;13.50;99.90;;;;;;5051909;28;20431;-65
2022/11/02 01:10:48;;;;;;;8.25;1.75;;;13.60;99.90;;;;;;5051911;28;20103;-66
2022/11/02 01:13:14;;;;;;;8.82;2.13;;;13.60;99.90;;;;;;5051428;28;20135;-65
2022/11/02 01:15:40;;;;;;;7.50;2.30;;;14.00;99.90;;;;;;5050747;28;20045;-66
2022/11/02 01:18:05;;;;;;;13.75;2.25;;;14.00;99.90;;;;;;5051804;28;20040;-65
2022/11/02 01:20:31;;;;;;;6.13;2.10;;;14.00;99.90;;;;;;5041652;28;20120;-66
2022/11/02 01:22:58;;;;;;;5.68;2.10;;;13.50;99.90;;;;;;5038291;28;20037;-65
2022/11/02 01:25:24;;;;;;;4.82;1.80;;;13.90;99.90;;;;;;5034841;28;20052;-65
2022/11/02 01:27:49;;;;;;;13.63;2.28;;;13.40;99.90;;;;;;5051623;28;20048;-66
2022/11/02 01:30:15;;;;;;;7.28;1.90;;;13.80;99.90;;;;;;5051359;28;20049;-66
2022/11/02 01:32:40;;;;;;;14.48;1.88;;;13.60;99.90;;;;;;5051491;28;20037;-66
2022/11/02 01:35:06;;;;;;;6.93;1.63;;;13.80;99.90;;;;;;5052251;28;20048;-66
2022/11/02 01:37:32;;;;;;;6.20;1.88;;;13.30;99.90;;;;;;5051404;28;20033;-65
2022/11/02 01:39:57;;;;;;;11.55;1.60;;;13.40;99.90;;;;;;5051301;28;20087;-65
2022/11/02 01:42:24;;;;;;;10.70;1.67;;;13.50;99.90;;;;;;5051520;28;20426;-65
2022/11/02 01:44:50;;;;;;;3.72;1.27;;;13.50;99.90;;;;;;5034250;28;20044;-65
2022/11/02 01:47:33;;;;;;;7.72;1.45;;;13.20;99.90;;;;;;5037926;28;20045;-66
2022/11/02 01:50:08;;;;;;;5.13;1.50;;;13.20;99.90;;;;;;5046479;28;20410;-65
2022/11/02 01:52:35;;;;;;;8.43;2.00;;;13.20;99.90;;;;;;5051055;28;20052;-65
2022/11/02 01:55:12;;;;;;;4.05;1.55;;;13.50;99.90;;;;;;5047386;28;20072;-66
2022/11/02 01:57:41;;;;;;;5.97;1.58;;;13.00;99.90;;;;;;5031067;28;20033;-65
2022/11/02 02:00:12;;;;;;;4.68;1.30;;;13.20;99.90;;;;;;5030867;28;20518;-65
2022/11/02 02:02:44;;;;;;;3.03;1.08;;;13.10;99.90;;;;;;5014360;28;20041;-65
2022/11/02 02:05:12;;;;;;;7.05;1.73;;;13.30;99.90;;;;;;5042266;28;20045;-66
2022/11/02 02:07:38;;;;;;;6.03;1.40;;;13.40;99.90;;;;;;5050692;28;20171;-65
2022/11/02 02:10:05;;;;;;;6.32;1.63;;;13.10;99.90;;;;;;5050731;28;20043;-65
2022/11/02 02:12:33;;;;;;;6.38;1.70;;;13.00;99.90;;;;;;5050749;28;20181;-66
2022/11/02 02:14:59;;;;;;;5.38;1.58;;;13.00;99.90;;;;;;5050467;28;20379;-65
2022/11/02 02:17:41;;;;;;;7.22;1.60;;;13.30;99.90;;;;;;5050764;28;20071;-65
2022/11/02 02:20:19;;;;;;;7.32;1.80;;;13.00;99.90;;;;;;5050674;28;20045;-66
2022/11/02 02:23:25;;;;;;;6.30;1.58;;;13.40;99.90;;;;;;5033945;28;20052;-65
2022/11/02 02:26:30;;;;;;;3.38;1.70;;;12.90;99.90;;;;;;5039030;28;20771;-66
2022/11/02 02:29:20;;;;;;;3.55;1.27;;;13.30;99.90;;;;;;5050629;28;20075;-64
2022/11/02 02:32:04;;;;;;;4.47;1.67;;;13.40;99.90;;;;;;5050300;28;20045;-65
2022/11/02 02:34:37;;;;;;;5.03;1.45;;;13.10;99.90;;;;;;5049865;28;20048;-65
2022/11/02 02:37:08;;;;;;;6.53;1.42;;;12.90;99.90;;;;;;5033676;28;20071;-65
2022/11/02 02:39:56;;;;;;;7.72;1.45;;;13.00;99.90;;;;;;5051462;28;20445;-65
2022/11/02 02:43:00;;;;;;;5.78;1.77;;;13.20;99.90;;;;;;5050545;28;20041;-65
2022/11/02 02:46:09;;;;;;;5.68;1.33;;;12.90;99.90;;;;;;5028766;28;20063;-65
2022/11/02 02:48:38;;;;;;;4.60;2.45;;;13.10;99.90;;;;;;5018412;28;20049;-65
2022/11/02 02:51:09;;;;;;;10.07;2.03;;;13.10;99.90;;;;;;5015629;28;20118;-67
2022/11/02 02:53:43;;;;;;;6.77;1.60;;;13.30;99.90;;;;;;5039726;28;20044;-66
2022/11/02 02:56:10;;;;;;;5.78;1.88;;;13.50;99.90;;;;;;5049905;28;20135;-66
2022/11/02 02:58:54;;;;;;;10.82;2.15;;;12.80;99.90;;;;;;5050854;28;20516;-66
2022/11/02 03:01:21;;;;;;;10.38;2.53;;;13.20;99.90;;;;;;5051392;28;20049;-66
2022/11/02 03:03:47;;;;;;;4.13;1.27;;;13.40;99.90;;;;;;5049420;28;20032;-65
2022/11/02 03:06:21;;;;;;;8.13;1.77;;;13.40;99.90;;;;;;5049698;28;20055;-65
2022/11/02 03:09:02;;;;;;;9.75;1.70;;;13.40;99.90;;;;;;5049608;28;20387;-65
2022/11/02 03:11:29;;;;;;;10.07;2.03;;;12.60;99.90;;;;;;5049332;28;20041;-66
2022/11/02 03:14:40;;;;;;;9.40;1.67;;;12.50;99.90;;;;;;5049186;28;20064;-67
2022/11/02 03:17:18;;;;;;;4.97;1.48;;;13.20;99.90;;;;;;5031274;28;20044;-66
2022/11/02 03:19:54;;;;;;;7.75;1.52;;;13.20;99.90;;;;;;5049567;28;20040;-65
2022/11/02 03:22:47;;;;;;;7.25;1.60;;;13.50;99.90;;;;;;5049630;28;20032;-66
2022/11/02 03:25:28;;;;;;;10.80;2.30;;;13.20;99.90;;;;;;5048052;28;20108;-66
2022/11/02 03:28:09;;;;;;;8.32;2.00;;;13.10;99.90;;;;;;5049605;28;20539;-65
2022/11/02 03:30:48;;;;;;;7.78;2.35;;;13.60;99.90;;;;;;5049259;28;20041;-65
2022/11/02 03:33:33;;;;;;;11.63;2.38;;;13.10;99.90;;;;;;5032499;28;20067;-65
2022/11/02 03:36:05;;;;;;;9.95;1.95;;;12.60;99.90;;;;;;5050630;28;20037;-66
2022/11/02 03:38:44;;;;;;;5.82;1.85;;;13.70;99.90;;;;;;5048966;28;20053;-66
2022/11/02 03:41:11;;;;;;;10.18;2.05;;;13.40;99.90;;;;;;5049062;28;20502;-66
2022/11/02 03:43:39;;;;;;;10.27;2.17;;;13.60;99.90;;;;;;5048817;28;20095;-67
2022/11/02 03:46:07;;;;;;;7.88;2.28;;;13.40;99.90;;;;;;5049139;28;20391;-67
2022/11/02 03:48:41;;;;;;;20.00;2.50;;;12.80;99.90;;;;;;5049110;28;20076;-67
2022/11/02 03:51:12;;;;;;;8.38;2.15;;;13.20;99.90;;;;;;5050517;28;20040;-67
2022/11/02 03:53:47;;;;;;;8.55;2.13;;;13.40;99.90;;;;;;5048587;28;20071;-68
2022/11/02 03:56:23;;;;;;;8.73;1.92;;;12.60;99.90;;;;;;5032790;28;20041;-66
2022/11/02 03:58:49;;;;;;;14.27;2.20;;;12.50;99.90;;;;;;5049137;28;20087;-66
2022/11/02 04:01:18;;;;;;;11.02;2.10;;;12.50;99.90;;;;;;5050392;28;20040;-66
2022/11/02 04:03:45;;;;;;;13.57;1.90;;;12.60;99.90;;;;;;5048699;28;20048;-67
2022/11/02 04:06:11;;;;;;;11.95;2.65;;;13.70;99.90;;;;;;5048923;28;20112;-67
2022/11/02 04:08:41;;;;;;;14.20;2.85;;;13.60;99.90;;;;;;5048934;28;20049;-66
2022/11/02 04:16:36;;;;;;;10.65;2.03;;;12.20;99.90;;;;;;5049233;28;20049;-67
2022/11/02 04:27:18;;;;;;;13.20;2.88;;;12.10;99.90;;;;;;5049011;28;20148;-68
2022/11/02 04:29:44;;;;;;;7.70;1.85;;;13.40;99.90;;;;;;5032209;28;20140;-67
2022/11/02 04:32:09;;;;;;;9.48;2.30;;;13.70;99.90;;;;;;5048880;28;20048;-66
2022/11/02 04:34:35;;;;;;;8.10;2.65;;;13.50;99.90;;;;;;5048755;28;20111;-67
2022/11/02 04:38:38;;;;;;;10.15;2.15;;;13.60;99.90;;;;;;5048791;28;20069;-68
2022/11/02 04:39:46;;;;;;;8.40;2.08;;;12.50;99.90;;;;;;5048264;28;20276;-67
2022/11/02 04:42:12;;;;;;;15.55;2.65;;;12.80;99.90;;;;;;5032457;28;20041;-68
2022/11/02 04:44:37;;;;;;;26.58;3.80;;;12.40;99.90;;;;;;5028268;28;20069;-67
2022/11/02 04:47:03;;;;;;;20.00;3.38;;;12.70;99.90;;;;;;5040059;28;20071;-66
2022/11/02 04:49:28;;;;;;;21.95;3.00;;;13.60;99.90;;;;;;5049622;28;20128;-66
2022/11/02 04:51:54;;;;;;;22.48;3.08;;;13.10;99.90;;;;;;5052289;28;20408;-66
2022/11/02 04:54:19;;;;;;;15.90;2.72;;;13.90;99.90;;;;;;5051527;28;20493;-66
2022/11/02 04:56:45;;;;;;;22.55;2.92;;;13.90;99.90;;;;;;5052300;28;20053;-66
2022/11/02 04:59:10;;;;;;;16.23;2.42;;;13.30;99.90;;;;;;5052252;28;20078;-67
2022/11/02 05:01:36;;;;;;;12.88;2.40;;;13.80;99.90;;;;;;5053537;28;20033;-66
2022/11/02 05:04:02;;;;;;;25.48;2.95;;;13.10;99.90;;;;;;5051516;28;20033;-67
2022/11/02 05:06:27;;;;;;;18.77;3.72;;;13.70;99.90;;;;;;5052007;28;20052;-66
2022/11/02 05:08:53;;;;;;;17.67;2.80;;;13.20;99.90;;;;;;5051852;28;20488;-66
2022/11/02 05:11:19;;;;;;;19.17;2.65;;;13.90;99.90;;;;;;5051573;28;20036;-66
2022/11/02 05:13:44;;;;;;;20.92;3.22;;;13.20;99.90;;;;;;5051768;28;20091;-67
2022/11/02 05:16:15;;;;;;;22.05;3.85;;;13.60;99.90;;;;;;5051988;28;20029;-66
2022/11/02 05:18:41;;;;;;;25.60;3.42;;;13.30;99.90;;;;;;5051421;28;20098;-66
2022/11/02 05:21:09;;;;;;;29.95;3.45;;;13.50;99.90;;;;;;5036920;28;20037;-66
2022/11/02 05:23:34;;;;;;;16.58;2.90;;;13.80;99.90;;;;;;5037569;28;20108;-66
2022/11/02 05:26:02;;;;;;;16.33;2.80;;;13.30;99.90;;;;;;5034737;28;20175;-67
2022/11/02 05:28:29;;;;;;;15.63;3.10;;;13.80;99.90;;;;;;5051487;28;20045;-66
2022/11/02 05:30:57;;;;;;;14.57;3.28;;;13.60;99.90;;;;;;5051957;28;20124;-66
2022/11/02 05:33:23;;;;;;;24.63;3.30;;;13.50;99.90;;;;;;5051401;28;20041;-66
2022/11/02 05:35:48;;;;;;;18.27;3.22;;;13.40;99.90;;;;;;5051412;28;20044;-66
2022/11/02 05:38:14;;;;;;;16.85;3.13;;;13.30;99.90;;;;;;5052715;28;20136;-66
2022/11/02 05:40:40;;;;;;;16.83;3.10;;;13.80;99.90;;;;;;5051152;28;20109;-66
2022/11/02 05:43:07;;;;;;;19.58;2.88;;;13.40;99.90;;;;;;5051343;28;20080;-66
2022/11/02 05:45:33;;;;;;;19.17;2.67;;;13.40;99.90;;;;;;5051024;28;20044;-66
2022/11/02 05:48:00;;;;;;;15.20;2.80;;;13.60;99.90;;;;;;5034460;28;20044;-66
2022/11/02 05:50:27;;;;;;;20.35;3.13;;;13.90;99.90;;;;;;5051095;28;20124;-66
2022/11/02 05:52:52;;;;;;;15.98;2.72;;;13.80;99.90;;;;;;5050988;28;20045;-66
2022/11/02 05:55:19;;;;;;;14.60;2.85;;;13.90;99.90;;;;;;5050707;28;20132;-66
2022/11/02 05:57:53;;;;;;;11.32;2.88;;;13.90;99.90;;;;;;5034479;28;20505;-66
2022/11/02 06:00:19;;;;;;;15.20;2.40;;;13.80;99.90;;;;;;5050568;28;20115;-66
2022/11/02 06:02:46;;;;;;;22.25;2.90;;;13.50;99.90;;;;;;5050932;28;20409;-66
2022/11/02 06:05:11;;;;;;;21.90;3.58;;;13.70;99.90;;;;;;5050714;28;20444;-66
2022/11/02 06:07:37;;;;;;;16.20;2.28;;;13.80;99.90;;;;;;5050650;28;20120;-66
2022/11/02 06:10:03;;;;;;;11.75;2.13;;;13.80;99.90;;;;;;5050525;28;20040;-66
2022/11/02 06:12:28;;;;;;;11.32;2.42;;;13.50;99.90;;;;;;5050854;28;20060;-66
2022/11/02 06:14:54;;;;;;;10.13;2.65;;;13.30;99.90;;;;;;5050559;28;20053;-66
2022/11/02 06:17:19;;;;;;;17.90;2.55;;;13.20;99.90;;;;;;5050371;28;20090;-66
2022/11/02 06:19:45;;;;;;;30.45;3.00;;;13.10;99.90;;;;;;5046635;28;20103;-67
2022/11/02 06:22:10;;;;;;;13.32;2.53;;;13.00;99.90;;;;;;5030750;28;20053;-66
2022/11/02 06:24:36;;;;;;;16.63;2.65;;;13.00;99.90;;;;;;5046346;28;20437;-66
2022/11/02 06:27:01;;;;;;;15.52;2.97;;;12.60;99.90;;;;;;5050441;28;20068;-66
2022/11/02 06:29:27;;;;;;;24.73;3.00;;;13.20;99.90;;;;;;5051206;28;20048;-66
2022/11/02 06:31:53;;;;;;;16.40;2.88;;;13.10;99.90;;;;;;5066763;28;20075;-66
2022/11/02 06:34:18;;;;;;;13.05;2.10;;;12.90;99.90;;;;;;5050178;28;20083;-66
2022/11/02 06:36:44;;;;;;;15.32;3.15;;;13.30;99.90;;;;;;5046463;28;20095;-66
2022/11/02 06:39:09;;;;;;;10.85;2.25;;;13.00;99.90;;;;;;5032494;28;20086;-66
2022/11/02 06:41:35;;;;;;;10.68;2.28;;;13.10;99.90;;;;;;5048411;28;20037;-66
2022/11/02 06:44:00;;;;;;;11.10;2.22;;;13.10;99.90;;;;;;5048659;28;20044;-65
2022/11/02 06:46:26;;;;;;;14.63;2.45;;;13.10;99.90;;;;;;5033149;28;20044;-66
2022/11/02 06:48:51;;;;;;;15.10;2.70;;;13.50;99.90;;;;;;5049524;28;20045;-66
2022/11/02 06:51:17;;;;;;;10.35;2.67;;;13.10;99.90;;;;;;5050993;28;20483;-66
2022/11/02 06:53:42;;;;;;;17.60;2.70;;;13.10;99.90;;;;;;5049740;28;20037;-66
2022/11/02 06:56:08;;;;;;;17.30;2.63;;;13.20;99.90;;;;;;5050072;28;20499;-65
2022/11/02 06:58:34;;;;;;;18.58;3.25;;;13.40;99.90;;;;;;5050200;28;20132;-66
2022/11/02 07:01:06;;;;;;;19.75;2.95;;;13.40;99.90;;;;;;5033352;28;20032;-65
2022/11/02 07:03:32;;;;;;;22.45;3.92;;;13.00;99.90;;;;;;5049288;28;20040;-65
2022/11/02 07:05:58;;;;;;;15.73;3.20;;;13.90;99.90;;;;;;5066620;28;20876;-66
2022/11/02 07:08:24;;;;;;;20.27;3.17;;;13.70;99.90;;;;;;5048892;28;20043;-65
2022/11/02 07:10:50;;;;;;;19.80;2.80;;;13.50;99.90;;;;;;5048971;28;20052;-64
2022/11/02 07:13:15;;;;;;;14.93;3.13;;;13.10;99.90;;;;;;5048864;28;20406;-65
2022/11/02 07:15:41;;;;;;;14.80;2.72;;;13.10;99.90;;;;;;5049363;28;20504;-65
2022/11/02 07:18:07;;;;;;;15.02;2.60;;;13.20;99.90;;;;;;5049348;28;20044;-66
2022/11/02 07:20:33;;;;;;;26.20;3.80;;;13.30;99.90;;;;;;5044511;28;20402;-66
2022/11/02 07:23:00;;;;;;;13.88;2.70;;;13.30;99.90;;;;;;5049340;28;20493;-66
2022/11/02 07:25:29;;;;;;;25.75;3.00;;;13.80;99.90;;;;;;5041126;28;20048;-65
2022/11/02 07:27:55;;;;;;;13.27;2.55;;;13.80;99.90;;;;;;5047514;28;20072;-65
2022/11/02 07:30:21;;;;;;;18.60;3.35;;;13.70;99.90;;;;;;5049733;28;20076;-65
2022/11/02 07:32:47;;;;;;;15.20;3.38;;;13.70;99.90;;;;;;5041580;28;20041;-65
2022/11/02 07:35:14;;;;;;;13.82;2.28;;;13.30;99.90;;;;;;5032316;28;20036;-65
2022/11/02 07:37:40;;;;;;;16.33;3.38;;;13.30;99.90;;;;;;5032792;28;20048;-65
2022/11/02 07:40:08;;;;;;;15.35;2.72;;;14.10;99.90;;;;;;5031621;28;20037;-65
2022/11/02 07:42:34;;;;;;;13.50;2.70;;;13.50;99.90;;;;;;5048538;28;20043;-65
2022/11/02 07:44:59;;;;;;;13.45;2.30;;;13.70;99.90;;;;;;5049348;28;20364;-65
2022/11/02 07:47:25;;;;;;;18.75;2.83;;;13.80;99.90;;;;;;5049719;28;20041;-65
2022/11/02 07:49:51;;;;;;;16.85;3.03;;;13.60;99.90;;;;;;5045856;28;20040;-65
2022/11/02 07:52:16;;;;;;;16.20;3.05;;;13.80;99.90;;;;;;5045895;28;20044;-65
2022/11/02 07:54:42;;;;;;;15.63;2.65;;;13.50;99.90;;;;;;5047583;28;20040;-67
2022/11/02 07:57:07;;;;;;;12.40;2.53;;;13.60;99.90;;;;;;5032273;28;20025;-65
2022/11/02 07:59:35;;;;;;;14.25;2.38;;;14.10;99.90;;;;;;5048944;28;20040;-65
2022/11/02 08:02:01;;;;;;;14.32;3.33;;;13.70;99.90;;;;;;5069886;28;20036;-65
2022/11/02 08:04:26;;;;;;;14.40;2.67;;;14.00;99.90;;;;;;5067410;28;20575;-65
2022/11/02 08:06:52;;;;;;;13.85;2.55;;;14.10;99.90;;;;;;5056637;28;20036;-65
2022/11/02 08:09:18;;;;;;;14.88;2.83;;;13.90;99.90;;;;;;5055336;28;20062;-65
2022/11/02 08:11:43;;;;;;;10.25;2.13;;;14.20;99.90;;;;;;5049688;28;20099;-66
2022/11/02 08:14:09;;;;;;;24.98;3.70;;;14.00;99.90;;;;;;5042076;28;20053;-65
2022/11/02 08:16:34;;;;;;;16.10;2.67;;;14.10;99.90;;;;;;5057781;28;20510;-65
2022/11/02 08:19:00;;;;;;;13.85;2.75;;;14.00;99.90;;;;;;5046441;28;20124;-66
2022/11/02 08:21:25;;;;;;;15.07;3.08;;;13.90;99.90;;;;;;5023432;28;20506;-65
2022/11/02 08:23:51;;;;;;;16.15;2.92;;;14.10;99.90;;;;;;5046141;28;20033;-66
2022/11/02 08:26:17;;;;;;;14.77;2.65;;;13.90;99.90;;;;;;5042866;28;20090;-65
2022/11/02 08:28:42;;;;;;;21.40;3.63;;;14.10;99.90;;;;;;5053640;28;20118;-68
2022/11/02 08:31:14;;;;;;;22.63;3.55;;;14.00;99.90;;;;;;5056041;28;20071;-63
2022/11/02 08:33:41;;;;;;;19.30;3.28;;;14.20;99.90;;;;;;5049970;28;20037;-62
2022/11/02 08:36:07;;;;;;;20.25;3.40;;;14.50;99.90;;;;;;5054229;28;20125;-62
2022/11/02 08:38:33;;;;;;;16.27;3.00;;;14.40;99.90;;;;;;5046876;28;20176;-62
2022/11/02 08:40:58;;;;;;;16.33;2.88;;;14.30;99.90;;;;;;5057151;28;20078;-62
2022/11/02 08:43:24;;;;;;;19.38;2.85;;;14.30;99.90;;;;;;5048220;28;20537;-62
2022/11/02 08:45:50;;;;;;;14.65;2.67;;;14.40;99.90;;;;;;5051743;28;20043;-62
2022/11/02 08:48:15;;;;;;;14.23;2.80;;;14.30;99.90;;;;;;5048112;28;20048;-63
2022/11/02 08:50:41;;;;;;;16.40;2.80;;;14.70;99.90;;;;;;5048630;28;20037;-62
2022/11/02 08:53:07;;;;;;;17.15;3.45;;;14.30;99.90;;;;;;5053593;28;20033;-62
2022/11/02 08:55:33;;;;;;;14.80;2.85;;;14.20;99.90;;;;;;5071306;28;20432;-62
2022/11/02 08:57:59;;;;;;;16.05;2.75;;;14.20;99.90;;;;;;5056729;28;20030;-63
2022/11/02 09:00:27;;;;;;;20.15;2.72;;;14.10;99.90;;;;;;5051675;28;20043;-62
2022/11/02 09:03:07;;;;;;;16.33;2.95;;;14.20;99.90;;;;;;5050493;28;20513;-62
2022/11/02 09:05:35;;;;;;;18.20;2.58;;;14.30;99.90;;;;;;5052790;28;20044;-62
2022/11/02 09:08:03;;;;;;;17.33;2.80;;;14.40;99.90;;;;;;5052186;28;20456;-62
2022/11/02 09:10:31;;;;;;;16.52;3.03;;;14.40;99.90;;;;;;5051940;28;20438;-62
2022/11/02 09:13:02;;;;;;;16.33;3.15;;;14.40;99.90;;;;;;5049126;28;20131;-62
2022/11/02 09:15:28;;;;;;;11.82;2.50;;;14.40;99.90;;;;;;5048727;28;20041;-61
2022/11/02 09:17:54;;;;;;;17.33;2.83;;;14.60;99.90;;;;;;5047857;28;20033;-62
2022/11/02 09:20:21;;;;;;;9.25;2.33;;;14.60;99.90;;;;;;5054098;28;20063;-61
2022/11/02 09:22:47;;;;;;;16.30;2.63;;;14.70;99.90;;;;;;5044077;28;20120;-62
2022/11/02 09:25:14;;;;;;;19.90;3.10;;;14.70;99.90;;;;;;5070054;28;20135;-62
2022/11/02 09:27:40;;;;;;;14.60;2.67;;;14.50;99.90;;;;;;5053860;28;20037;-62
2022/11/02 09:30:07;;;;;;;17.83;3.25;;;14.50;99.90;;;;;;5052925;28;20114;-61
2022/11/02 09:32:33;;;;;;;15.75;2.65;;;14.50;99.90;;;;;;5041263;28;20034;-62
2022/11/02 09:35:00;;;;;;;21.48;2.78;;;14.60;99.90;;;;;;5046960;28;20404;-62
2022/11/02 09:37:26;;;;;;;11.75;2.65;;;14.70;99.90;;;;;;5041214;28;20040;-62
2022/11/02 09:39:52;;;;;;;10.73;2.30;;;14.80;99.90;;;;;;5044586;28;20406;-62
2022/11/02 09:42:41;;;;;;;13.35;2.35;;;14.70;99.90;;;;;;5043349;28;20037;-62
2022/11/02 09:45:15;;;;;;;12.30;2.70;;;14.80;99.90;;;;;;5049596;28;20556;-62
2022/11/02 09:47:49;;;;;;;17.17;2.47;;;14.70;99.90;;;;;;5051437;28;20094;-62
2022/11/02 09:50:23;;;;;;;18.30;2.67;;;14.60;99.90;;;;;;5050033;28;20037;-62
2022/11/02 09:52:55;;;;;;;15.73;2.45;;;14.60;99.90;;;;;;5047248;28;20032;-62
2022/11/02 09:55:26;;;;;;;12.77;2.75;;;14.70;99.90;;;;;;5043137;28;20092;-62
2022/11/02 09:58:06;;;;;;;16.00;2.80;;;14.70;99.90;;;;;;5051949;28;20033;-62
2022/11/02 10:00:35;;;;;;;22.48;3.13;;;14.60;99.90;;;;;;5054339;28;20116;-62
2022/11/02 10:03:20;;;;;;;18.08;3.40;;;14.60;99.90;;;;;;5049527;28;20059;-62
2022/11/02 10:06:14;;;;;;;16.20;2.88;;;14.70;99.90;;;;;;5052819;28;20372;-62
2022/11/02 10:09:01;;;;;;;20.88;2.85;;;15.00;99.90;;;;;;5047731;28;20049;-63
2022/11/02 10:11:36;;;;;;;26.10;2.85;;;15.00;99.90;;;;;;5044490;28;20406;-62
2022/11/02 10:14:10;;;;;;;14.02;2.88;;;15.00;99.90;;;;;;5041561;28;20434;-62
2022/11/02 10:16:51;;;;;;;17.60;2.30;;;15.10;99.90;;;;;;5026114;28;20553;-62
2022/11/02 10:19:19;;;;;;;15.80;2.58;;;15.20;99.90;;;;;;5047175;28;20502;-62
2022/11/02 10:21:48;;;;;;;14.05;2.72;;;15.50;99.90;;;;;;5048330;28;20037;-62
2022/11/02 10:24:22;;;;;;;15.35;2.67;;;15.80;99.90;;;;;;5045758;28;20045;-62
2022/11/02 10:26:48;;;;;;;17.55;2.72;;;15.30;99.90;;;;;;5048500;28;20040;-63
2022/11/02 10:29:33;;;;;;;17.75;2.78;;;15.30;99.90;;;;;;5044827;28;20044;-62
2022/11/02 10:31:59;;;;;;;14.57;2.47;;;15.50;99.90;;;;;;5050125;28;20041;-63
2022/11/02 10:34:26;;;;;;;10.80;1.92;;;15.50;99.90;;;;;;5050775;28;20049;-62
2022/11/02 10:37:17;;;;;;;10.32;2.53;;;15.50;99.90;;;;;;5044546;28;20055;-63
2022/11/02 10:39:58;;;;;;;15.20;2.75;;;15.40;99.90;;;;;;5048005;28;20430;-63
2022/11/02 10:42:59;;;;;;;13.27;2.13;;;15.50;99.90;;;;;;5044947;28;20132;-62
2022/11/02 10:46:01;;;;;;;15.52;2.50;;;15.50;99.90;;;;;;5022769;28;20111;-63
2022/11/02 10:48:47;;;;;;;12.43;2.30;;;15.40;99.90;;;;;;5057748;28;20037;-62
2022/11/02 10:51:15;;;;;;;17.00;2.28;;;15.20;99.90;;;;;;5051855;28;20051;-63
2022/11/02 10:53:43;;;;;;;15.77;2.50;;;15.10;99.90;;;;;;5053097;28;20261;-62
2022/11/02 10:56:23;;;;;;;5.63;1.70;;;15.20;99.90;;;;;;5047082;28;20238;-62
2022/11/02 10:58:58;;;;;;;15.93;2.25;;;15.20;99.90;;;;;;5050165;28;20041;-63
2022/11/02 11:01:25;;;;;;;13.70;2.30;;;15.30;99.90;;;;;;5045032;28;20102;-62
2022/11/02 11:04:03;;;;;;;10.45;1.90;;;15.40;99.90;;;;;;5044432;28;20036;-62
2022/11/02 11:06:41;;;;;;;18.90;2.10;;;15.40;99.90;;;;;;5047350;28;20046;-62
2022/11/02 11:09:21;;;;;;;10.98;2.03;;;15.50;99.90;;;;;;5041826;28;20044;-62
2022/11/02 11:12:03;;;;;;;14.50;2.13;;;15.60;99.90;;;;;;5042062;28;20077;-62
2022/11/02 11:14:32;;;;;;;8.10;1.75;;;15.50;99.90;;;;;;5048616;28;20055;-62
2022/11/02 11:17:01;;;;;;;7.05;2.50;;;15.50;99.90;;;;;;5028591;28;20037;-62
2022/11/02 11:19:40;;;;;;;20.05;3.30;;;15.60;99.90;;;;;;5040499;28;20045;-62
2022/11/02 11:22:28;;;;;;;14.77;2.40;;;15.40;99.90;;;;;;5042208;28;20037;-61
2022/11/02 11:25:11;;;;;;;18.02;2.60;;;15.50;99.90;;;;;;5045625;28;20516;-62
2022/11/02 11:27:45;;;;;;;9.82;2.15;;;15.50;99.90;;;;;;5044399;28;20123;-61
2022/11/02 11:30:40;;;;;;;22.08;2.40;;;15.50;99.90;;;;;;5058782;28;20511;-61
2022/11/02 11:33:06;;;;;;;12.50;2.22;;;15.40;99.90;;;;;;5039978;28;20107;-61
2022/11/02 11:35:38;;;;;;;13.13;2.88;;;15.60;99.90;;;;;;5045018;28;20037;-62
2022/11/02 11:38:30;;;;;;;13.07;3.13;;;15.60;99.90;;;;;;5044956;28;20064;-62
2022/11/02 11:40:57;;;;;;;11.73;2.25;;;15.60;99.90;;;;;;5038564;28;20146;-61
2022/11/02 11:43:32;;;;;;;13.75;2.45;;;15.50;1.00;;;;;;5050568;28;20140;-61
2022/11/02 11:46:04;;;;;;;15.50;2.67;;;15.40;1.00;;;;;;5048438;28;20112;-61
2022/11/02 11:48:43;;;;;;;16.63;3.28;;;15.60;99.90;;;;;;5052638;28;20044;-62
2022/11/02 11:51:32;;;;;;;10.05;2.17;;;15.70;99.90;;;;;;5042282;28;20474;-61
2022/11/02 11:54:31;;;;;;;12.63;2.42;;;15.80;99.90;;;;;;5059766;28;20033;-62
2022/11/02 11:57:22;;;;;;;15.25;2.70;;;15.70;99.90;;;;;;5059707;28;20475;-61
2022/11/02 11:59:50;;;;;;;13.95;2.40;;;15.70;1.00;;;;;;5063656;28;20119;-61
2022/11/02 12:02:31;;;;;;;15.63;2.55;;;15.60;1.00;;;;;;5062045;28;20041;-61
2022/11/02 12:05:11;;;;;;;19.10;3.17;;;15.60;1.00;;;;;;5051460;28;20052;-61
2022/11/02 12:07:56;;;;;;;17.63;3.33;;;15.70;99.90;;;;;;5042253;28;20449;-62
2022/11/02 12:10:35;;;;;;;15.93;2.72;;;15.80;99.90;;;;;;5054320;28;20037;-61
2022/11/02 12:13:08;;;;;;;11.82;2.38;;;15.90;99.90;;;;;;5065720;28;20053;-61
2022/11/02 12:15:43;;;;;;;10.85;2.53;;;15.90;71.20;;;;;;5053596;28;20052;-61
2022/11/02 12:18:14;;;;;;;12.48;2.55;;;15.80;1.00;;;;;;5060314;28;20047;-61
2022/11/02 12:20:52;;;;;;;17.13;2.88;;;15.70;99.90;;;;;;5050862;28;20092;-61
2022/11/02 12:23:52;;;;;;;23.50;3.88;;;15.70;6.70;;;;;;5059979;28;20045;-61
2022/11/02 12:26:23;;;;;;;10.88;2.13;;;15.70;99.90;;;;;;5053261;28;20045;-61
2022/11/02 12:29:33;;;;;;;8.57;2.00;;;15.70;1.00;;;;;;5054608;28;20025;-61
2022/11/02 12:32:20;;;;;;;13.57;2.38;;;15.70;1.00;;;;;;5054004;28;20065;-62
2022/11/02 12:35:18;;;;;;;15.38;2.17;;;15.60;1.00;;;;;;5055354;28;20051;-61
2022/11/02 12:38:08;;;;;;;6.18;2.10;;;15.60;99.00;;;;;;5048324;28;20131;-61
2022/11/02 12:41:12;;;;;;;11.07;2.20;;;15.80;99.90;;;;;;5048798;28;20056;-61
2022/11/02 12:43:42;;;;;;;5.40;1.95;;;15.70;99.90;;;;;;5054427;28;20055;-61
2022/11/02 12:46:20;;;;;;;8.73;2.50;;;15.70;99.90;;;;;;5062420;28;20041;-61
2022/11/02 12:49:11;;;;;;;11.70;1.65;;;15.70;1.00;;;;;;5056809;28;20040;-61
2022/11/02 12:51:47;;;;;;;13.80;2.28;;;15.70;7.30;;;;;;5034486;28;20037;-61
2022/11/02 12:54:20;;;;;;;12.43;3.13;;;15.80;1.00;;;;;;5037565;28;20055;-62
2022/11/02 12:56:53;;;;;;;13.88;2.42;;;15.70;1.00;;;;;;5045045;28;20089;-61
2022/11/02 12:59:23;;;;;;;9.23;1.95;;;15.70;99.90;;;;;;5045056;28;20041;-63
2022/11/02 13:01:54;;;;;;;12.95;2.38;;;15.80;99.90;;;;;;5035684;28;20068;-61
2022/11/02 13:04:28;;;;;;;13.70;2.40;;;15.70;99.90;;;;;;5049616;28;20761;-60
2022/11/02 13:07:04;;;;;;;10.13;2.83;;;15.70;99.90;;;;;;5059783;28;20080;-61
2022/11/02 13:09:48;;;;;;;17.00;2.05;;;15.60;99.90;;;;;;5050831;28;20041;-61
2022/11/02 13:12:18;;;;;;;17.65;2.17;;;15.60;99.90;;;;;;5048013;28;20061;-62
2022/11/02 13:14:50;;;;;;;14.13;2.78;;;15.70;99.90;;;;;;5046202;28;20111;-61